createdAt,value
2023-04-03T00:02:18.351Z,5.33
2023-04-03T00:04:48.794Z,5.33
2023-04-03T00:07:18.279Z,5.30
2023-04-03T00:09:48.190Z,5.29
2023-04-03T00:12:19.580Z,5.28
2023-04-03T00:14:50.471Z,5.26
2023-04-03T00:17:20.179Z,5.26
2023-04-03T00:19:50.734Z,5.25
2023-04-03T00:22:20.308Z,5.27
2023-04-03T00:24:50.245Z,5.29
2023-04-03T00:27:21.746Z,5.28
2023-04-03T00:29:51.779Z,5.25
2023-04-03T00:32:22.604Z,5.25
2023-04-03T00:34:52.001Z,5.23
2023-04-03T00:37:21.739Z,5.24
2023-04-03T00:39:51.812Z,5.26
2023-04-03T00:42:22.866Z,5.21
2023-04-03T00:45:30.877Z,5.20
2023-04-03T00:48:02.741Z,5.19
2023-04-03T00:50:33.815Z,5.17
2023-04-03T00:53:03.798Z,5.18
2023-04-03T00:55:34.392Z,5.19
2023-04-03T00:58:07.097Z,5.18
2023-04-03T01:00:38.200Z,5.20
2023-04-03T01:03:09.029Z,5.18
2023-04-03T01:05:39.829Z,5.16
2023-04-03T01:08:10.138Z,5.15
2023-04-03T01:10:40.015Z,5.10
2023-04-03T01:13:27.010Z,5.08
2023-04-03T01:15:56.590Z,5.06
2023-04-03T01:18:27.933Z,5.07
2023-04-03T01:21:39.431Z,5.06
2023-04-03T01:24:36.029Z,5.07
2023-04-03T01:27:09.291Z,5.06
2023-04-03T01:29:41.089Z,5.00
2023-04-03T01:32:13.353Z,4.98
2023-04-03T01:34:42.317Z,4.91
2023-04-03T01:37:13.916Z,4.88
2023-04-03T01:39:44.393Z,4.87
2023-04-03T01:42:14.357Z,4.89
2023-04-03T01:44:43.726Z,4.88
2023-04-03T01:47:15.136Z,4.85
2023-04-03T01:49:45.445Z,4.80
2023-04-03T01:52:15.055Z,4.80
2023-04-03T01:54:46.114Z,4.77
2023-04-03T01:57:17.731Z,4.77
2023-04-03T01:59:46.210Z,4.76
2023-04-03T02:02:17.891Z,4.70
2023-04-03T02:04:47.219Z,4.65
2023-04-03T02:07:16.806Z,4.66
2023-04-03T02:09:47.964Z,4.62
2023-04-03T02:12:16.855Z,4.62
2023-04-03T02:14:46.866Z,4.56
2023-04-03T02:17:17.775Z,4.49
2023-04-03T02:19:47.145Z,4.51
2023-04-03T02:22:16.130Z,4.48
2023-04-03T02:24:46.806Z,4.43
2023-04-03T02:27:17.028Z,4.40
2023-04-03T02:29:47.428Z,4.40
2023-04-03T02:32:19.263Z,4.39
2023-04-03T02:34:49.167Z,4.38
2023-04-03T02:37:18.832Z,4.34
2023-04-03T02:39:48.702Z,4.30
2023-04-03T02:42:19.468Z,4.26
2023-04-03T02:44:49.398Z,4.24
2023-04-03T02:47:21.208Z,4.18
2023-04-03T02:49:51.607Z,4.10
2023-04-03T02:52:22.011Z,4.03
2023-04-03T02:54:51.458Z,4.04
2023-04-03T02:57:22.623Z,3.97
2023-04-03T02:59:51.666Z,3.94
2023-04-03T03:02:23.753Z,3.91
2023-04-03T03:04:53.894Z,3.87
2023-04-03T03:07:25.008Z,3.79
2023-04-03T03:09:55.496Z,3.72
2023-04-03T03:12:26.556Z,3.74
2023-04-03T03:14:56.693Z,3.68
2023-04-03T03:17:28.069Z,3.60
2023-04-03T03:19:57.555Z,3.60
2023-04-03T03:22:31.061Z,3.63
2023-04-03T03:25:02.319Z,3.59
2023-04-03T03:27:31.548Z,3.56
2023-04-03T03:30:01.105Z,3.57
2023-04-03T03:32:32.406Z,3.52
2023-04-03T03:35:01.960Z,3.54
2023-04-03T03:37:31.936Z,3.48
2023-04-03T03:40:00.884Z,3.48
2023-04-03T03:42:31.373Z,3.41
2023-04-03T03:45:01.994Z,3.43
2023-04-03T03:47:33.361Z,3.40
2023-04-03T03:50:02.160Z,3.37
2023-04-03T03:52:31.727Z,3.37
2023-04-03T03:55:02.290Z,3.34
2023-04-03T03:57:32.978Z,3.33
2023-04-03T04:00:02.357Z,3.24
2023-04-03T04:02:34.526Z,3.22
2023-04-03T04:05:04.143Z,3.20
2023-04-03T04:07:34.685Z,3.17
2023-04-03T04:10:04.960Z,3.15
2023-04-03T04:12:36.681Z,3.12
2023-04-03T04:15:07.469Z,3.07
2023-04-03T04:17:39.605Z,3.07
2023-04-03T04:20:13.447Z,3.02
2023-04-03T04:22:41.843Z,3.01
2023-04-03T04:25:20.495Z,2.99
2023-04-03T04:27:50.351Z,2.97
2023-04-03T04:30:20.762Z,2.98
2023-04-03T04:32:51.573Z,2.94
2023-04-03T04:35:21.573Z,2.91
2023-04-03T04:37:51.088Z,2.91
2023-04-03T04:40:20.697Z,2.89
2023-04-03T04:42:50.716Z,2.91
2023-04-03T04:45:21.464Z,2.92
2023-04-03T04:47:54.473Z,2.90
2023-04-03T04:50:24.395Z,2.86
2023-04-03T04:52:55.181Z,2.86
2023-04-03T04:55:25.246Z,2.87
2023-04-03T04:57:54.623Z,2.87
2023-04-03T05:00:24.849Z,2.83
2023-04-03T05:02:57.228Z,2.80
2023-04-03T05:05:27.272Z,2.78
2023-04-03T05:07:58.718Z,2.75
2023-04-03T05:10:29.092Z,2.70
2023-04-03T05:12:59.607Z,2.69
2023-04-03T05:15:29.612Z,2.67
2023-04-03T05:18:01.109Z,2.71
2023-04-03T05:20:31.210Z,2.68
2023-04-03T05:23:00.216Z,2.66
2023-04-03T05:25:30.496Z,2.65
2023-04-03T05:28:00.509Z,2.66
2023-04-03T05:30:31.733Z,2.69
2023-04-03T05:33:04.663Z,2.72
2023-04-03T05:35:34.371Z,2.69
2023-04-03T05:38:04.931Z,2.68
2023-04-03T05:40:34.664Z,2.64
2023-04-03T05:43:04.970Z,2.65
2023-04-03T05:45:34.830Z,2.63
2023-04-03T05:48:07.393Z,2.64
2023-04-03T05:50:37.526Z,2.67
2023-04-03T05:53:07.639Z,2.67
2023-04-03T05:55:37.731Z,2.67
2023-04-03T05:58:09.748Z,2.64
2023-04-03T06:00:40.836Z,2.64
2023-04-03T06:03:12.531Z,2.66
2023-04-03T06:05:43.224Z,2.65
2023-04-03T06:08:14.133Z,2.71
2023-04-03T06:10:44.732Z,2.70
2023-04-03T06:13:13.513Z,2.74
2023-04-03T06:15:43.873Z,2.75
2023-04-03T06:18:15.948Z,2.76
2023-04-03T06:20:44.960Z,2.77
2023-04-03T06:23:15.970Z,2.83
2023-04-03T06:25:44.976Z,2.87
2023-04-03T06:28:15.021Z,2.90
2023-04-03T06:30:45.415Z,2.95
2023-04-03T06:33:17.388Z,2.98
2023-04-03T06:35:48.816Z,3.04
2023-04-03T06:38:20.346Z,3.10
2023-04-03T06:40:50.608Z,3.17
2023-04-03T06:43:20.061Z,3.21
2023-04-03T06:45:50.557Z,3.27
2023-04-03T06:48:21.945Z,3.32
2023-04-03T06:50:51.676Z,3.37
2023-04-03T06:53:21.620Z,3.45
2023-04-03T06:55:51.318Z,3.50
2023-04-03T06:58:22.635Z,3.58
2023-04-03T07:00:53.742Z,3.67
2023-04-03T07:03:25.593Z,3.73
2023-04-03T07:05:54.994Z,3.77
2023-04-03T07:08:24.787Z,3.82
2023-04-03T07:10:54.146Z,3.86
2023-04-03T07:13:24.596Z,3.88
2023-04-03T07:15:56.148Z,3.92
2023-04-03T07:18:27.968Z,3.97
2023-04-03T07:20:57.560Z,4.01
2023-04-03T07:23:27.793Z,4.07
2023-04-03T07:25:56.957Z,4.15
2023-04-03T07:28:27.572Z,4.21
2023-04-03T07:31:04.236Z,4.28
2023-04-03T07:33:36.588Z,4.30
2023-04-03T07:36:08.298Z,4.39
2023-04-03T07:38:38.356Z,4.46
2023-04-03T07:41:08.633Z,4.53
2023-04-03T07:43:38.607Z,4.57
2023-04-03T07:46:08.597Z,4.60
2023-04-03T07:48:39.398Z,4.60
2023-04-03T07:51:09.522Z,4.64
2023-04-03T07:53:40.145Z,4.67
2023-04-03T07:56:10.327Z,4.70
2023-04-03T07:58:40.606Z,4.75
2023-04-03T08:01:10.057Z,4.77
2023-04-03T08:03:42.626Z,4.77
2023-04-03T08:06:16.236Z,4.76
2023-04-03T08:08:48.819Z,4.74
2023-04-03T08:11:17.788Z,4.78
2023-04-03T08:13:48.851Z,4.76
2023-04-03T08:16:23.437Z,4.82
2023-04-03T08:18:54.330Z,4.83
2023-04-03T08:21:24.164Z,4.84
2023-04-03T08:23:53.630Z,4.88
2023-04-03T08:26:24.209Z,4.87
2023-04-03T08:28:54.208Z,4.87
2023-04-03T08:31:23.451Z,4.91
2023-04-03T08:33:54.644Z,4.94
2023-04-03T08:36:27.876Z,5.01
2023-04-03T08:38:59.147Z,5.08
2023-04-03T08:41:36.778Z,5.11
2023-04-03T08:44:26.412Z,5.16
2023-04-03T08:47:20.861Z,5.20
2023-04-03T08:49:56.442Z,5.22
2023-04-03T08:52:36.738Z,5.27
2023-04-03T08:55:10.976Z,5.36
2023-04-03T08:57:47.373Z,5.36
2023-04-03T09:00:26.375Z,5.38
2023-04-03T09:02:59.466Z,5.43
2023-04-03T09:05:46.514Z,5.48
2023-04-03T09:08:27.816Z,5.55
2023-04-03T09:11:12.661Z,5.69
2023-04-03T09:13:52.316Z,5.75
2023-04-03T09:16:41.577Z,5.84
2023-04-03T09:19:22.076Z,5.85
2023-04-03T09:21:53.884Z,5.89
2023-04-03T09:24:27.391Z,5.91
2023-04-03T09:27:03.645Z,6.02
2023-04-03T09:29:35.238Z,6.06
2023-04-03T09:32:20.951Z,6.08
2023-04-03T09:34:54.143Z,6.07
2023-04-03T09:37:47.912Z,6.16
2023-04-03T09:40:42.895Z,6.30
2023-04-03T09:43:32.116Z,6.38
2023-04-03T09:46:28.803Z,6.47
2023-04-03T09:49:08.740Z,6.52
2023-04-03T09:51:39.852Z,6.55
2023-04-03T09:54:38.514Z,6.55
2023-04-03T09:57:12.925Z,6.55
2023-04-03T10:00:00.392Z,6.47
2023-04-03T10:02:56.750Z,6.46
2023-04-03T10:05:56.105Z,6.41
2023-04-03T10:08:31.718Z,6.38
2023-04-03T10:11:21.121Z,6.39
2023-04-03T10:14:19.319Z,6.37
2023-04-03T10:16:57.430Z,6.36
2023-04-03T10:19:43.585Z,6.30
2023-04-03T10:22:28.940Z,6.30
2023-04-03T10:25:15.858Z,6.34
2023-04-03T10:27:57.901Z,6.33
2023-04-03T10:30:43.634Z,6.40
2023-04-03T10:33:35.701Z,6.45
2023-04-03T10:36:36.505Z,6.53
2023-04-03T10:39:18.242Z,6.58
2023-04-03T10:42:16.698Z,6.57
2023-04-03T10:45:16.933Z,6.61
2023-04-03T10:48:03.356Z,6.63
2023-04-03T10:50:51.238Z,6.71
2023-04-03T10:53:34.217Z,6.73
2023-04-03T10:56:15.327Z,6.79
2023-04-03T10:58:50.835Z,6.84
2023-04-03T11:01:27.758Z,6.93
2023-04-03T11:04:01.701Z,6.98
2023-04-03T11:06:42.668Z,7.02
2023-04-03T11:09:25.311Z,7.04
2023-04-03T11:12:02.929Z,7.01
2023-04-03T11:14:36.984Z,6.96
2023-04-03T11:17:24.310Z,6.95
2023-04-03T11:20:07.577Z,6.96
2023-04-03T11:22:42.018Z,7.04
2023-04-03T11:25:23.845Z,7.04
2023-04-03T11:28:01.338Z,7.06
2023-04-03T11:30:38.898Z,7.12
2023-04-03T11:34:01.264Z,7.18
2023-04-03T11:36:36.497Z,7.19
2023-04-03T11:39:24.153Z,7.25
2023-04-03T11:42:00.196Z,7.28
2023-04-03T11:44:40.455Z,7.36
2023-04-03T11:47:11.356Z,7.43
2023-04-03T11:50:02.287Z,7.42
2023-04-03T11:53:05.132Z,7.37
2023-04-03T11:56:01.723Z,7.38
2023-04-03T11:58:34.135Z,7.38
2023-04-03T12:01:08.699Z,7.41
2023-04-03T12:04:10.283Z,7.48
2023-04-03T12:07:18.035Z,7.51
2023-04-03T12:10:31.633Z,7.44
2023-04-03T12:13:04.228Z,7.48
2023-04-03T12:15:58.368Z,7.51
2023-04-03T12:19:01.538Z,7.54
2023-04-03T12:22:22.174Z,7.52
2023-04-03T12:24:53.697Z,7.49
2023-04-03T12:27:42.968Z,7.49
2023-04-03T12:30:40.153Z,7.56
2023-04-03T12:33:35.079Z,7.56
2023-04-03T12:36:15.658Z,7.57
2023-04-03T12:39:23.674Z,7.62
2023-04-03T12:42:07.450Z,7.60
2023-04-03T12:44:52.746Z,7.57
2023-04-03T12:47:34.274Z,7.61
2023-04-03T12:50:07.346Z,7.63
2023-04-03T12:52:43.904Z,7.68
2023-04-03T12:55:21.323Z,7.71
2023-04-03T12:57:50.933Z,7.73
2023-04-03T13:00:35.767Z,7.75
2023-04-03T13:03:07.341Z,7.77
2023-04-03T13:05:38.883Z,7.75
2023-04-03T13:08:16.945Z,7.70
2023-04-03T13:11:03.817Z,7.63
2023-04-03T13:13:35.061Z,7.61
2023-04-03T13:16:12.937Z,7.53
2023-04-03T13:18:44.904Z,7.55
2023-04-03T13:21:21.916Z,7.48
2023-04-03T13:24:03.619Z,7.46
2023-04-03T13:26:43.146Z,7.59
2023-04-03T13:29:31.012Z,7.65
2023-04-03T13:32:03.337Z,7.66
2023-04-03T13:34:42.233Z,7.73
2023-04-03T13:37:25.832Z,7.77
2023-04-03T13:40:13.684Z,7.78
2023-04-03T13:42:46.111Z,7.73
2023-04-03T13:45:27.781Z,7.67
2023-04-03T13:48:23.971Z,7.67
2023-04-03T13:50:59.541Z,7.81
2023-04-03T13:53:31.132Z,7.82
2023-04-03T13:56:08.609Z,8.09
2023-04-03T13:58:39.980Z,8.32
2023-04-03T14:01:22.728Z,8.34
2023-04-03T14:03:59.703Z,8.18
2023-04-03T14:06:30.146Z,8.22
2023-04-03T14:09:00.572Z,8.25
2023-04-03T14:11:36.244Z,8.26
2023-04-03T14:14:16.627Z,8.10
2023-04-03T14:16:53.559Z,8.03
2023-04-03T14:19:28.193Z,8.12
2023-04-03T14:21:58.874Z,8.22
2023-04-03T14:24:29.892Z,8.31
2023-04-03T14:27:01.876Z,8.46
2023-04-03T14:29:33.134Z,8.54
2023-04-03T14:32:11.855Z,8.57
2023-04-03T14:34:44.888Z,8.61
2023-04-03T14:37:17.994Z,8.61
2023-04-03T14:39:48.816Z,8.68
2023-04-03T14:42:23.089Z,8.78
2023-04-03T14:44:55.356Z,8.77
2023-04-03T14:47:31.778Z,8.78
2023-04-03T14:50:03.354Z,8.84
2023-04-03T14:52:37.454Z,8.88
2023-04-03T14:55:08.779Z,8.81
2023-04-03T14:57:41.746Z,8.83
2023-04-03T15:00:20.365Z,8.92
2023-04-03T15:02:50.010Z,9.05
2023-04-03T15:05:20.565Z,9.07
2023-04-03T15:07:55.077Z,9.04
2023-04-03T15:10:28.296Z,9.06
2023-04-03T15:12:58.450Z,9.15
2023-04-03T15:15:32.833Z,9.18
2023-04-03T15:18:02.787Z,9.21
2023-04-03T15:20:34.670Z,9.31
2023-04-03T15:23:05.896Z,9.42
2023-04-03T15:25:35.853Z,9.46
2023-04-03T15:28:05.062Z,9.48
2023-04-03T15:30:41.263Z,9.40
2023-04-03T15:33:11.021Z,9.37
2023-04-03T15:35:42.060Z,9.34
2023-04-03T15:38:11.889Z,9.40
2023-04-03T15:40:41.700Z,9.36
2023-04-03T15:43:12.766Z,9.35
2023-04-03T15:45:45.610Z,9.37
2023-04-03T15:48:17.431Z,9.41
2023-04-03T15:50:47.487Z,9.37
2023-04-03T15:53:17.376Z,9.34
2023-04-03T15:55:47.997Z,9.38
2023-04-03T15:58:18.487Z,9.42
2023-04-03T16:00:49.595Z,9.38
2023-04-03T16:03:23.005Z,9.30
2023-04-03T16:05:52.995Z,9.24
2023-04-03T16:08:23.277Z,9.10
2023-04-03T16:10:53.865Z,8.96
2023-04-03T16:13:23.838Z,8.91
2023-04-03T16:15:55.228Z,8.86
2023-04-03T16:18:25.825Z,8.86
2023-04-03T16:20:55.978Z,8.79
2023-04-03T16:23:26.604Z,8.70
2023-04-03T16:25:56.171Z,8.69
2023-04-03T16:28:26.126Z,8.71
2023-04-03T16:30:57.571Z,8.62
2023-04-03T16:33:30.386Z,8.53
2023-04-03T16:36:01.517Z,8.52
2023-04-03T16:38:31.068Z,8.47
2023-04-03T16:41:05.834Z,8.40
2023-04-03T16:43:37.086Z,8.31
2023-04-03T16:46:07.852Z,8.24
2023-04-03T16:48:37.156Z,8.19
2023-04-03T16:51:06.898Z,8.11
2023-04-03T16:53:37.656Z,8.05
2023-04-03T16:56:08.555Z,8.05
2023-04-03T16:58:38.573Z,7.97
2023-04-03T17:01:18.693Z,7.92
2023-04-03T17:03:47.706Z,7.90
2023-04-03T17:06:21.495Z,7.86
2023-04-03T17:08:53.079Z,7.77
2023-04-03T17:11:23.745Z,7.79
2023-04-03T17:13:52.852Z,7.77
2023-04-03T17:16:26.211Z,7.75
2023-04-03T17:18:56.492Z,7.75
2023-04-03T17:21:26.818Z,7.76
2023-04-03T17:24:02.485Z,7.72
2023-04-03T17:26:34.164Z,7.70
2023-04-03T17:29:05.833Z,7.64
2023-04-03T17:31:37.379Z,7.62
2023-04-03T17:34:06.671Z,7.55
2023-04-03T17:36:37.205Z,7.52
2023-04-03T17:39:06.994Z,7.46
2023-04-03T17:41:36.768Z,7.43
2023-04-03T17:44:06.678Z,7.41
2023-04-03T17:46:38.323Z,7.38
2023-04-03T17:49:10.629Z,7.35
2023-04-03T17:51:40.671Z,7.33
2023-04-03T17:54:10.073Z,7.31
2023-04-03T17:56:39.068Z,7.26
2023-04-03T17:59:08.514Z,7.21
2023-04-03T18:01:40.981Z,7.16
2023-04-03T18:04:10.548Z,7.15
2023-04-03T18:06:43.838Z,7.12
2023-04-03T18:09:17.155Z,7.11
2023-04-03T18:11:49.019Z,7.08
2023-04-03T18:14:24.384Z,7.06
2023-04-03T18:16:54.755Z,7.00
2023-04-03T18:22:19.287Z,6.92
2023-04-03T18:24:49.851Z,6.84
2023-04-03T18:27:22.590Z,6.82
2023-04-03T18:29:55.515Z,6.79
2023-04-03T18:32:27.031Z,6.80
2023-04-03T18:34:57.589Z,6.79
2023-04-03T18:37:27.316Z,6.75
2023-04-03T18:39:56.348Z,6.71
2023-04-03T18:42:27.986Z,6.68
2023-04-03T18:45:00.998Z,6.64
2023-04-03T18:47:33.617Z,6.59
2023-04-03T18:50:03.163Z,6.57
2023-04-03T18:52:31.562Z,6.55
2023-04-03T18:55:00.875Z,6.49
2023-04-03T18:57:30.873Z,6.46
2023-04-03T19:00:00.425Z,6.42
2023-04-03T19:02:31.453Z,6.41
2023-04-03T19:05:02.004Z,6.40
2023-04-03T19:07:32.685Z,6.36
2023-04-03T19:10:02.160Z,6.35
2023-04-03T19:12:31.753Z,6.28
2023-04-03T19:15:01.114Z,6.27
2023-04-03T19:17:32.690Z,6.23
2023-04-03T19:20:04.253Z,6.17
2023-04-03T19:22:33.810Z,6.13
2023-04-03T19:25:02.251Z,6.11
2023-04-03T19:27:32.192Z,6.10
2023-04-03T19:30:02.498Z,6.07
2023-04-03T19:32:33.002Z,6.01
2023-04-03T19:35:03.148Z,5.94
2023-04-03T19:37:31.680Z,5.87
2023-04-03T19:40:02.153Z,5.81
2023-04-03T19:42:31.765Z,5.73
2023-04-03T19:45:00.825Z,5.66
2023-04-03T19:47:32.680Z,5.56
2023-04-03T19:50:03.350Z,5.48
2023-04-03T19:52:31.718Z,5.39
2023-04-03T19:55:00.111Z,5.32
2023-04-03T19:57:30.232Z,5.28
2023-04-03T20:00:00.006Z,5.24
2023-04-03T20:02:28.956Z,5.18
2023-04-03T20:04:59.874Z,5.10
2023-04-03T20:07:29.953Z,5.03
2023-04-03T20:09:58.608Z,4.98
2023-04-03T20:12:28.219Z,4.92
2023-04-03T20:15:00.530Z,4.86
2023-04-03T20:17:30.671Z,4.84
2023-04-03T20:20:03.739Z,4.83
2023-04-03T20:22:34.527Z,4.83
2023-04-03T20:25:06.728Z,4.71
2023-04-03T20:27:36.675Z,4.60
2023-04-03T20:30:09.614Z,4.50
2023-04-03T20:32:39.125Z,4.49
2023-04-03T20:35:11.124Z,4.43
2023-04-03T20:37:43.023Z,4.39
2023-04-03T20:40:16.819Z,4.32
2023-04-03T20:42:46.718Z,4.29
2023-04-03T20:45:15.982Z,4.26
2023-04-03T20:47:46.519Z,4.22
2023-04-03T20:50:19.326Z,4.17
2023-04-03T20:52:49.525Z,4.17
2023-04-03T20:55:19.879Z,4.18
2023-04-03T20:57:54.479Z,4.21
2023-04-03T21:00:25.238Z,4.23
2023-04-03T21:02:56.934Z,4.25
2023-04-03T21:05:30.712Z,4.27
2023-04-03T21:08:56.176Z,4.31
2023-04-03T21:12:20.859Z,4.28
2023-04-03T21:15:46.046Z,4.30
2023-04-03T21:18:50.319Z,4.30
2023-04-03T21:21:22.943Z,4.27
2023-04-03T21:23:54.558Z,4.27
2023-04-03T21:26:27.249Z,4.23
2023-04-03T21:28:56.481Z,4.22
2023-04-03T21:31:25.857Z,4.19
2023-04-03T21:33:58.153Z,4.22
2023-04-03T21:36:28.762Z,4.17
2023-04-03T21:38:59.800Z,4.15
2023-04-03T21:41:28.740Z,4.17
2023-04-03T21:43:58.747Z,4.17
2023-04-03T21:46:27.666Z,4.15
2023-04-03T21:48:58.762Z,4.19
2023-04-03T21:51:28.905Z,4.14
2023-04-03T21:53:59.817Z,4.15
2023-04-03T21:56:29.370Z,4.04
2023-04-03T21:58:58.572Z,3.99
2023-04-03T22:01:28.290Z,3.97
2023-04-03T22:03:59.869Z,3.93
2023-04-03T22:06:29.276Z,3.95
2023-04-03T22:08:59.349Z,3.97
2023-04-03T22:11:29.968Z,3.97
2023-04-03T22:13:59.381Z,3.91
2023-04-03T22:16:28.770Z,3.92
2023-04-03T22:19:00.847Z,3.90
2023-04-03T22:21:29.191Z,3.90
2023-04-03T22:23:59.047Z,3.91
2023-04-03T22:26:29.058Z,3.83
2023-04-03T22:28:58.276Z,3.83
2023-04-03T22:31:27.783Z,3.80
2023-04-03T22:34:00.184Z,3.81
2023-04-03T22:36:30.163Z,3.75
2023-04-03T22:39:00.339Z,3.74
2023-04-03T22:41:29.930Z,3.72
2023-04-03T22:43:59.938Z,3.73
2023-04-03T22:46:29.004Z,3.73
2023-04-03T22:48:59.925Z,3.75
2023-04-03T22:51:30.024Z,3.75
2023-04-03T22:53:59.436Z,3.76
2023-04-03T22:56:29.371Z,3.72
2023-04-03T22:58:58.960Z,3.68
2023-04-03T23:01:28.028Z,3.67
2023-04-03T23:03:59.811Z,3.67
2023-04-03T23:06:28.733Z,3.64
2023-04-03T23:08:58.180Z,3.62
2023-04-03T23:11:28.232Z,3.60
2023-04-03T23:13:57.089Z,3.58
2023-04-03T23:16:26.609Z,3.52
2023-04-03T23:18:56.606Z,3.48
2023-04-03T23:21:28.770Z,3.44
2023-04-03T23:23:59.374Z,3.41
2023-04-03T23:26:29.464Z,3.43
2023-04-03T23:28:59.290Z,3.43
2023-04-03T23:31:29.311Z,3.41
2023-04-03T23:33:58.786Z,3.40
2023-04-03T23:36:30.685Z,3.35
2023-04-03T23:39:01.475Z,3.35
2023-04-03T23:41:31.594Z,3.36
2023-04-03T23:44:02.037Z,3.37
2023-04-03T23:46:33.523Z,3.29
2023-04-03T23:49:04.403Z,3.29
2023-04-03T23:51:36.978Z,3.28
2023-04-03T23:54:06.482Z,3.30
2023-04-03T23:56:36.360Z,3.28
2023-04-03T23:59:05.750Z,3.27
